createdAt,value
2023-01-07T00:00:16.811Z,20.92
2023-01-07T00:02:44.051Z,18.23
2023-01-07T00:05:11.271Z,18.55
2023-01-07T00:07:38.443Z,11.30
2023-01-07T00:10:05.855Z,16.90
2023-01-07T00:12:32.983Z,20.55
2023-01-07T00:15:00.099Z,15.43
2023-01-07T00:17:27.290Z,14.23
2023-01-07T00:19:54.435Z,16.08
2023-01-07T00:22:21.611Z,15.43
2023-01-07T00:24:48.971Z,17.08
2023-01-07T00:27:16.095Z,21.15
2023-01-07T00:29:43.248Z,20.63
2023-01-07T00:32:10.652Z,15.55
2023-01-07T00:34:39.081Z,13.70
2023-01-07T00:37:38.176Z,20.73
2023-01-07T00:40:05.520Z,15.00
2023-01-07T00:42:51.239Z,17.25
2023-01-07T00:45:18.394Z,19.77
2023-01-07T00:47:45.530Z,17.08
2023-01-07T00:50:12.825Z,17.38
2023-01-07T00:52:40.139Z,16.05
2023-01-07T00:55:07.701Z,15.02
2023-01-07T00:57:35.042Z,13.95
2023-01-07T01:00:02.341Z,18.52
2023-01-07T01:02:30.034Z,14.55
2023-01-07T01:04:57.331Z,18.63
2023-01-07T01:07:25.060Z,18.30
2023-01-07T01:09:52.347Z,14.63
2023-01-07T01:12:19.732Z,17.85
2023-01-07T01:14:48.267Z,17.23
2023-01-07T01:17:15.783Z,15.60
2023-01-07T01:19:42.934Z,16.15
2023-01-07T01:22:10.165Z,12.88
2023-01-07T01:24:37.917Z,17.35
2023-01-07T01:27:05.079Z,15.60
2023-01-07T01:29:32.420Z,14.73
2023-01-07T01:32:01.322Z,15.98
2023-01-07T01:34:30.161Z,14.10
2023-01-07T01:36:57.301Z,15.00
2023-01-07T01:39:24.628Z,17.88
2023-01-07T01:41:52.586Z,12.73
2023-01-07T01:44:37.470Z,11.30
2023-01-07T01:47:09.759Z,15.55
2023-01-07T01:49:39.313Z,16.17
2023-01-07T01:52:11.848Z,15.32
2023-01-07T01:54:40.609Z,13.75
2023-01-07T01:57:09.187Z,17.48
2023-01-07T01:59:38.512Z,16.73
2023-01-07T02:02:09.689Z,17.85
2023-01-07T02:04:37.514Z,19.27
2023-01-07T02:07:12.341Z,12.50
2023-01-07T02:09:43.979Z,15.63
2023-01-07T02:12:15.033Z,14.15
2023-01-07T02:14:45.435Z,15.13
2023-01-07T02:17:40.867Z,15.05
2023-01-07T02:20:15.940Z,14.60
2023-01-07T02:23:01.791Z,17.63
2023-01-07T02:25:48.047Z,14.07
2023-01-07T02:28:34.685Z,17.90
2023-01-07T02:31:11.140Z,15.07
2023-01-07T02:36:05.866Z,17.73
2023-01-07T02:38:51.228Z,18.55
2023-01-07T02:41:35.557Z,20.00
2023-01-07T02:44:05.480Z,17.58
2023-01-07T02:46:37.865Z,12.93
2023-01-07T02:49:09.308Z,12.40
2023-01-07T02:51:37.792Z,17.52
2023-01-07T02:54:07.094Z,18.45
2023-01-07T02:56:53.036Z,14.25
2023-01-07T02:59:41.215Z,16.05
2023-01-07T03:02:20.658Z,15.85
2023-01-07T03:05:03.147Z,14.20
2023-01-07T03:07:59.730Z,13.23
2023-01-07T03:10:34.690Z,12.55
2023-01-07T03:13:14.997Z,13.18
2023-01-07T03:15:45.227Z,14.00
2023-01-07T03:18:21.696Z,18.35
2023-01-07T03:20:51.660Z,14.40
2023-01-07T03:23:20.905Z,12.13
2023-01-07T03:25:49.464Z,15.75
2023-01-07T03:28:21.648Z,14.18
2023-01-07T03:30:50.109Z,14.45
2023-01-07T03:33:47.148Z,14.55
2023-01-07T03:36:17.103Z,13.07
2023-01-07T03:38:45.338Z,11.73
2023-01-07T03:41:32.462Z,12.63
2023-01-07T03:43:59.877Z,12.65
2023-01-07T03:46:27.195Z,12.55
2023-01-07T03:48:55.787Z,11.85
2023-01-07T03:51:24.030Z,13.15
2023-01-07T03:53:51.190Z,17.23
2023-01-07T03:56:18.509Z,10.50
2023-01-07T03:58:45.655Z,11.85
2023-01-07T04:01:12.857Z,14.82
2023-01-07T04:03:40.161Z,15.02
2023-01-07T04:06:07.338Z,11.02
2023-01-07T04:08:37.096Z,12.50
2023-01-07T04:11:04.737Z,12.93
2023-01-07T04:13:32.072Z,13.88
2023-01-07T04:15:59.379Z,15.13
2023-01-07T04:18:26.627Z,13.80
2023-01-07T04:20:55.288Z,15.77
2023-01-07T04:23:22.529Z,12.82
2023-01-07T04:25:51.096Z,12.85
2023-01-07T04:28:22.578Z,13.55
2023-01-07T04:30:50.502Z,12.82
2023-01-07T04:33:18.549Z,14.30
2023-01-07T04:35:48.806Z,14.77
2023-01-07T04:38:16.685Z,10.40
2023-01-07T04:40:44.990Z,13.07
2023-01-07T04:43:12.998Z,13.98
2023-01-07T04:45:40.583Z,12.43
2023-01-07T04:48:08.241Z,12.15
2023-01-07T04:50:35.384Z,15.13
2023-01-07T04:53:02.581Z,12.18
2023-01-07T04:55:29.826Z,11.77
2023-01-07T04:57:57.550Z,15.45
2023-01-07T05:00:24.878Z,11.27
2023-01-07T05:02:54.346Z,10.65
2023-01-07T05:05:21.788Z,11.52
2023-01-07T05:07:49.391Z,12.13
2023-01-07T05:10:18.590Z,13.80
2023-01-07T05:12:46.301Z,13.82
2023-01-07T05:15:15.256Z,10.60
2023-01-07T05:17:43.198Z,10.95
2023-01-07T05:20:10.711Z,15.80
2023-01-07T05:22:39.361Z,11.57
2023-01-07T05:25:06.928Z,13.18
2023-01-07T05:27:34.108Z,13.48
2023-01-07T05:30:03.175Z,13.05
2023-01-07T05:32:30.447Z,11.90
2023-01-07T05:34:58.844Z,12.68
2023-01-07T05:37:26.057Z,11.70
2023-01-07T05:39:53.658Z,13.43
2023-01-07T05:42:21.704Z,11.38
2023-01-07T05:44:50.120Z,12.18
2023-01-07T05:47:17.338Z,11.02
2023-01-07T05:49:44.489Z,12.65
2023-01-07T05:52:11.648Z,10.63
2023-01-07T05:54:38.887Z,12.15
2023-01-07T05:57:06.092Z,10.73
2023-01-07T05:59:34.719Z,9.35
2023-01-07T06:02:02.337Z,12.90
2023-01-07T06:04:29.692Z,11.02
2023-01-07T06:06:56.902Z,10.40
2023-01-07T06:09:24.088Z,11.57
2023-01-07T06:11:51.217Z,9.65
2023-01-07T06:14:18.471Z,11.07
2023-01-07T06:16:45.691Z,12.02
2023-01-07T06:19:12.498Z,10.48
2023-01-07T06:21:39.710Z,9.70
2023-01-07T06:24:07.460Z,10.15
2023-01-07T06:26:34.639Z,7.72
2023-01-07T06:29:01.827Z,8.75
2023-01-07T06:31:29.076Z,11.15
2023-01-07T06:33:56.213Z,7.65
2023-01-07T06:36:23.483Z,11.68
2023-01-07T06:38:50.675Z,11.43
2023-01-07T06:41:17.898Z,8.57
2023-01-07T06:43:45.134Z,8.85
2023-01-07T06:46:12.579Z,8.95
2023-01-07T06:48:39.851Z,9.38
2023-01-07T06:51:07.001Z,10.10
2023-01-07T06:53:34.418Z,11.75
2023-01-07T06:56:01.623Z,8.70
2023-01-07T06:58:28.850Z,9.88
2023-01-07T07:00:56.112Z,9.45
2023-01-07T07:03:23.356Z,8.82
2023-01-07T07:05:50.513Z,5.28
2023-01-07T07:08:17.733Z,8.15
2023-01-07T07:10:44.942Z,8.35
2023-01-07T07:13:19.212Z,6.63
2023-01-07T07:15:46.571Z,9.15
2023-01-07T07:18:13.756Z,8.52
2023-01-07T07:20:41.024Z,7.88
2023-01-07T07:23:08.181Z,8.35
2023-01-07T07:25:35.388Z,7.07
2023-01-07T07:28:02.605Z,7.72
2023-01-07T07:30:47.285Z,7.30
2023-01-07T07:33:18.780Z,6.63
2023-01-07T07:35:46.051Z,7.53
2023-01-07T07:38:13.261Z,6.25
2023-01-07T07:40:40.409Z,8.65
2023-01-07T07:43:10.492Z,4.72
2023-01-07T07:45:40.125Z,7.22
2023-01-07T07:48:07.800Z,5.75
2023-01-07T07:50:35.095Z,7.95
2023-01-07T07:53:02.555Z,6.45
2023-01-07T07:55:29.681Z,5.40
2023-01-07T07:57:58.296Z,5.38
2023-01-07T08:00:25.781Z,6.22
2023-01-07T08:02:52.871Z,6.15
2023-01-07T08:05:20.062Z,6.43
2023-01-07T08:07:47.401Z,6.18
2023-01-07T08:10:14.607Z,4.40
2023-01-07T08:12:41.808Z,5.00
2023-01-07T08:15:09.226Z,4.47
2023-01-07T08:17:36.769Z,3.95
2023-01-07T08:20:04.722Z,4.13
2023-01-07T08:22:33.360Z,5.78
2023-01-07T08:25:00.642Z,7.03
2023-01-07T08:27:28.127Z,5.15
2023-01-07T08:29:55.593Z,4.25
2023-01-07T08:32:22.812Z,3.58
2023-01-07T08:34:50.033Z,3.65
2023-01-07T08:37:17.316Z,5.03
2023-01-07T08:39:44.470Z,6.05
2023-01-07T08:42:11.648Z,7.10
2023-01-07T08:44:38.895Z,4.30
2023-01-07T08:47:06.080Z,3.72
2023-01-07T08:49:33.450Z,4.85
2023-01-07T08:52:00.603Z,4.10
2023-01-07T08:54:27.890Z,5.60
2023-01-07T08:56:55.077Z,4.28
2023-01-07T08:59:22.344Z,6.28
2023-01-07T09:01:49.719Z,2.78
2023-01-07T09:04:17.114Z,3.70
2023-01-07T09:06:44.424Z,4.25
2023-01-07T09:09:14.290Z,7.07
2023-01-07T09:11:41.590Z,5.03
2023-01-07T09:14:09.051Z,4.40
2023-01-07T09:16:36.348Z,3.92
2023-01-07T09:19:03.460Z,4.07
2023-01-07T09:21:30.634Z,2.63
2023-01-07T09:23:57.821Z,4.20
2023-01-07T09:26:24.972Z,3.50
2023-01-07T09:28:52.279Z,3.60
2023-01-07T09:31:19.495Z,2.08
2023-01-07T09:33:46.799Z,5.07
2023-01-07T09:36:14.034Z,4.45
2023-01-07T09:38:41.192Z,1.95
2023-01-07T09:41:27.176Z,3.78
2023-01-07T09:44:01.051Z,6.40
2023-01-07T09:46:29.137Z,3.88
2023-01-07T09:48:58.610Z,3.35
2023-01-07T09:51:29.471Z,5.50
2023-01-07T09:53:59.486Z,4.65
2023-01-07T09:56:37.087Z,6.32
2023-01-07T09:59:05.413Z,3.00
2023-01-07T10:01:39.828Z,2.95
2023-01-07T10:04:25.844Z,7.65
2023-01-07T10:06:53.614Z,2.63
2023-01-07T10:09:26.564Z,2.30
2023-01-07T10:12:12.591Z,3.97
2023-01-07T10:14:52.129Z,2.95
2023-01-07T10:17:36.633Z,2.58
2023-01-07T10:20:08.954Z,1.90
2023-01-07T10:22:37.939Z,5.10
2023-01-07T10:25:07.510Z,2.95
2023-01-07T10:27:37.911Z,2.83
2023-01-07T10:30:11.776Z,3.78
2023-01-07T10:32:39.403Z,4.88
2023-01-07T10:35:13.305Z,5.68
2023-01-07T10:37:41.827Z,3.72
2023-01-07T10:40:09.149Z,5.00
2023-01-07T10:42:39.768Z,4.20
2023-01-07T10:45:15.939Z,2.67
2023-01-07T10:48:03.413Z,2.17
2023-01-07T10:50:48.947Z,4.38
2023-01-07T10:53:42.381Z,4.28
2023-01-07T10:56:15.599Z,2.92
2023-01-07T10:58:43.882Z,3.50
2023-01-07T11:01:23.371Z,8.82
2023-01-07T11:03:55.959Z,3.30
2023-01-07T11:06:41.060Z,1.83
2023-01-07T11:09:14.033Z,8.73
2023-01-07T11:11:42.297Z,2.78
2023-01-07T11:14:23.268Z,5.68
2023-01-07T11:17:07.081Z,2.45
2023-01-07T11:19:49.194Z,2.10
2023-01-07T11:22:29.698Z,2.88
2023-01-07T11:25:01.680Z,10.55
2023-01-07T11:27:31.613Z,2.33
2023-01-07T11:30:32.725Z,2.05
2023-01-07T11:33:07.114Z,3.25
2023-01-07T11:35:34.440Z,2.50
2023-01-07T11:38:01.795Z,1.25
2023-01-07T11:40:32.458Z,2.67
2023-01-07T11:43:17.695Z,3.38
2023-01-07T11:46:20.834Z,2.75
2023-01-07T11:49:03.205Z,4.10
2023-01-07T11:51:40.031Z,1.48
2023-01-07T11:54:28.304Z,3.78
2023-01-07T11:57:19.507Z,3.38
2023-01-07T11:59:46.735Z,2.60
2023-01-07T12:02:25.929Z,1.63
2023-01-07T12:04:53.216Z,2.22
2023-01-07T12:07:21.756Z,2.78
2023-01-07T12:09:48.895Z,3.25
2023-01-07T12:12:39.368Z,3.08
2023-01-07T12:15:26.543Z,2.25
2023-01-07T12:18:27.225Z,1.67
2023-01-07T12:21:16.050Z,2.70
2023-01-07T12:24:10.350Z,4.07
2023-01-07T12:26:56.292Z,2.47
2023-01-07T12:29:46.107Z,5.93
2023-01-07T12:32:20.451Z,4.53
2023-01-07T12:34:54.652Z,4.00
2023-01-07T12:37:30.150Z,3.30
2023-01-07T12:40:03.326Z,5.13
2023-01-07T12:42:33.529Z,4.50
2023-01-07T12:47:35.058Z,3.72
2023-01-07T12:50:05.144Z,4.50
2023-01-07T12:52:44.382Z,2.50
2023-01-07T12:55:20.805Z,2.40
2023-01-07T13:00:26.636Z,3.05
2023-01-07T13:03:01.102Z,2.75
2023-01-07T13:05:34.683Z,3.58
2023-01-07T13:08:12.770Z,4.85
2023-01-07T13:10:43.081Z,4.20
2023-01-07T13:13:15.848Z,2.03
2023-01-07T13:15:43.157Z,2.95
2023-01-07T13:18:17.985Z,3.63
2023-01-07T13:21:08.206Z,2.95
2023-01-07T13:23:59.985Z,2.63
2023-01-07T13:27:01.725Z,3.40
2023-01-07T13:29:55.247Z,3.75
2023-01-07T13:32:23.536Z,3.80
2023-01-07T13:35:06.056Z,3.30
2023-01-07T13:37:52.138Z,3.85
2023-01-07T13:40:38.116Z,3.92
2023-01-07T13:43:16.303Z,5.05
2023-01-07T13:45:47.895Z,2.97
2023-01-07T13:48:21.350Z,4.35
2023-01-07T13:51:05.922Z,2.65
2023-01-07T13:53:34.766Z,3.78
2023-01-07T13:56:22.624Z,5.15
2023-01-07T13:58:53.354Z,4.53
2023-01-07T14:01:21.615Z,3.25
2023-01-07T14:03:56.248Z,3.50
2023-01-07T14:06:23.915Z,3.97
2023-01-07T14:08:57.125Z,4.05
2023-01-07T14:11:30.453Z,3.67
2023-01-07T14:14:03.403Z,3.42
2023-01-07T14:16:55.912Z,4.55
2023-01-07T14:19:42.373Z,3.90
2023-01-07T14:22:28.386Z,4.13
2023-01-07T14:25:01.726Z,2.47
2023-01-07T14:27:39.873Z,5.00
2023-01-07T14:30:24.155Z,4.80
2023-01-07T14:33:04.729Z,2.97
2023-01-07T14:35:42.095Z,3.60
2023-01-07T14:38:28.237Z,3.65
2023-01-07T14:40:58.515Z,5.57
2023-01-07T14:45:53.921Z,2.40
2023-01-07T14:48:28.959Z,3.78
2023-01-07T14:51:30.253Z,3.85
2023-01-07T14:56:40.115Z,5.53
2023-01-07T14:59:16.475Z,4.20
2023-01-07T15:02:13.224Z,3.63
2023-01-07T15:04:59.681Z,2.50
2023-01-07T15:07:28.519Z,4.63
2023-01-07T15:10:20.916Z,4.72
2023-01-07T15:13:14.236Z,4.72
2023-01-07T15:16:01.445Z,3.90
2023-01-07T15:18:32.907Z,3.13
2023-01-07T15:21:12.474Z,4.38
2023-01-07T15:24:21.596Z,4.95
2023-01-07T15:27:00.410Z,5.18
2023-01-07T15:29:46.629Z,4.05
2023-01-07T15:32:16.770Z,3.40
2023-01-07T15:34:44.258Z,4.90
2023-01-07T15:37:13.529Z,3.90
2023-01-07T15:39:45.600Z,5.07
2023-01-07T15:42:15.581Z,3.45
2023-01-07T15:44:43.084Z,6.30
2023-01-07T15:47:29.073Z,4.00
2023-01-07T15:49:56.486Z,5.15
2023-01-07T15:52:25.788Z,4.70
2023-01-07T15:54:52.999Z,6.53
2023-01-07T15:57:31.693Z,5.57
2023-01-07T15:59:59.175Z,3.35
2023-01-07T16:02:29.319Z,3.50
2023-01-07T16:04:58.725Z,5.68
2023-01-07T16:07:36.305Z,5.25
2023-01-07T16:10:04.075Z,5.22
2023-01-07T16:12:40.820Z,6.05
2023-01-07T16:15:21.241Z,3.50
2023-01-07T16:17:55.943Z,5.72
2023-01-07T16:20:24.828Z,5.68
2023-01-07T16:22:52.873Z,4.25
2023-01-07T16:25:22.691Z,5.10
2023-01-07T16:27:51.034Z,4.05
2023-01-07T16:30:18.706Z,4.28
2023-01-07T16:32:46.559Z,6.30
2023-01-07T16:35:22.576Z,3.75
2023-01-07T16:37:50.094Z,4.03
2023-01-07T16:40:23.004Z,5.40
2023-01-07T16:42:50.397Z,5.15
2023-01-07T16:45:24.944Z,5.60
2023-01-07T16:48:10.861Z,4.32
2023-01-07T16:50:39.488Z,3.67
2023-01-07T16:53:21.297Z,5.00
2023-01-07T16:56:09.408Z,4.13
2023-01-07T16:58:57.177Z,7.03
2023-01-07T17:01:31.262Z,5.13
2023-01-07T17:04:00.521Z,4.95
2023-01-07T17:06:37.680Z,5.60
2023-01-07T17:09:05.141Z,3.47
2023-01-07T17:11:34.585Z,5.55
2023-01-07T17:14:01.883Z,5.43
2023-01-07T17:16:42.763Z,6.30
2023-01-07T17:19:22.971Z,5.75
2023-01-07T17:21:50.285Z,5.97
2023-01-07T17:24:30.906Z,5.10
2023-01-07T17:27:03.187Z,6.43
2023-01-07T17:29:35.815Z,8.32
2023-01-07T17:32:04.462Z,7.75
2023-01-07T17:34:31.753Z,8.27
2023-01-07T17:36:59.132Z,8.82
2023-01-07T17:39:26.402Z,7.22
2023-01-07T17:42:12.064Z,6.32
2023-01-07T17:44:39.283Z,7.65
2023-01-07T17:47:07.692Z,7.00
2023-01-07T17:49:34.899Z,8.27
2023-01-07T17:52:02.730Z,6.65
2023-01-07T17:54:30.882Z,5.88
2023-01-07T17:57:02.145Z,6.35
2023-01-07T17:59:30.546Z,7.38
2023-01-07T18:01:59.072Z,7.55
2023-01-07T18:04:28.623Z,5.13
2023-01-07T18:06:55.856Z,5.93
2023-01-07T18:09:23.019Z,5.93
2023-01-07T18:12:08.822Z,5.95
2023-01-07T18:14:36.315Z,5.70
2023-01-07T18:17:03.482Z,7.55
2023-01-07T18:19:30.810Z,7.85
2023-01-07T18:21:57.987Z,5.85
2023-01-07T18:24:25.183Z,5.28
2023-01-07T18:26:53.232Z,6.10
2023-01-07T18:29:21.194Z,6.80
2023-01-07T18:31:48.776Z,6.68
2023-01-07T18:34:16.600Z,9.15
2023-01-07T18:36:44.048Z,9.75
2023-01-07T18:39:16.863Z,5.80
2023-01-07T18:41:46.018Z,6.43
2023-01-07T18:44:13.133Z,5.78
2023-01-07T18:46:40.309Z,4.65
2023-01-07T18:49:07.410Z,6.93
2023-01-07T18:51:34.554Z,6.57
2023-01-07T18:54:01.710Z,7.50
2023-01-07T18:56:28.938Z,4.72
2023-01-07T18:58:56.106Z,4.93
2023-01-07T19:01:23.412Z,6.85
2023-01-07T19:03:50.727Z,6.95
2023-01-07T19:06:18.159Z,6.30
2023-01-07T19:08:45.419Z,7.28
2023-01-07T19:11:13.626Z,6.85
2023-01-07T19:13:40.988Z,7.53
2023-01-07T19:16:13.159Z,12.15
2023-01-07T19:18:40.687Z,5.75
2023-01-07T19:21:11.094Z,7.32
2023-01-07T19:26:08.135Z,4.07
2023-01-07T19:28:35.636Z,11.82
2023-01-07T19:31:06.924Z,9.90
2023-01-07T19:33:34.575Z,5.32
2023-01-07T19:36:06.063Z,5.63
2023-01-07T19:38:33.291Z,7.20
2023-01-07T19:41:00.503Z,7.20
2023-01-07T19:43:27.619Z,7.95
2023-01-07T19:45:56.202Z,8.30
2023-01-07T19:48:23.889Z,6.68
2023-01-07T19:50:54.814Z,7.35
2023-01-07T19:53:22.102Z,7.30
2023-01-07T19:55:49.397Z,7.22
2023-01-07T19:58:16.856Z,7.00
2023-01-07T20:00:44.204Z,9.30
2023-01-07T20:03:12.249Z,7.05
2023-01-07T20:05:39.539Z,6.43
2023-01-07T20:08:06.746Z,6.88
2023-01-07T20:10:33.678Z,8.98
2023-01-07T20:13:00.929Z,7.00
2023-01-07T20:15:28.720Z,7.57
2023-01-07T20:17:56.023Z,7.18
2023-01-07T20:20:24.629Z,7.05
2023-01-07T20:22:52.294Z,7.68
2023-01-07T20:25:19.752Z,7.35
2023-01-07T20:27:47.008Z,7.30
2023-01-07T20:30:14.335Z,8.82
2023-01-07T20:32:41.808Z,7.13
2023-01-07T20:35:09.241Z,5.18
2023-01-07T20:37:36.740Z,7.22
2023-01-07T20:40:05.435Z,5.18
2023-01-07T20:42:32.783Z,7.35
2023-01-07T20:45:00.456Z,5.88
2023-01-07T20:47:27.870Z,9.07
2023-01-07T20:49:55.379Z,7.90
2023-01-07T20:52:23.193Z,5.80
2023-01-07T20:54:50.380Z,8.48
2023-01-07T20:57:17.884Z,6.35
2023-01-07T20:59:45.635Z,8.48
2023-01-07T21:02:17.056Z,7.13
2023-01-07T21:04:44.431Z,6.85
2023-01-07T21:07:11.688Z,7.50
2023-01-07T21:09:38.939Z,6.57
2023-01-07T21:12:06.533Z,8.15
2023-01-07T21:14:33.887Z,7.30
2023-01-07T21:17:01.216Z,6.43
2023-01-07T21:19:28.347Z,7.45
2023-01-07T21:21:55.707Z,6.68
2023-01-07T21:24:23.003Z,7.72
2023-01-07T21:26:50.304Z,7.03
2023-01-07T21:29:17.818Z,7.50
2023-01-07T21:31:45.955Z,6.28
2023-01-07T21:34:13.663Z,7.88
2023-01-07T21:36:40.969Z,7.35
2023-01-07T21:39:08.570Z,7.60
2023-01-07T21:41:37.344Z,6.47
2023-01-07T21:44:04.659Z,6.47
2023-01-07T21:46:31.845Z,8.45
2023-01-07T21:49:01.152Z,7.32
2023-01-07T21:51:28.750Z,6.88
2023-01-07T21:53:56.897Z,7.75
2023-01-07T21:56:24.892Z,6.82
2023-01-07T21:58:52.473Z,7.13
2023-01-07T22:01:20.089Z,5.57
2023-01-07T22:03:48.800Z,5.35
2023-01-07T22:06:23.262Z,6.80
2023-01-07T22:08:50.916Z,6.40
2023-01-07T22:11:18.621Z,8.05
2023-01-07T22:13:49.477Z,5.05
2023-01-07T22:16:16.729Z,7.15
2023-01-07T22:18:43.943Z,7.05
2023-01-07T22:21:11.098Z,8.50
2023-01-07T22:23:38.415Z,5.47
2023-01-07T22:26:06.260Z,7.57
2023-01-07T22:28:34.735Z,7.35
2023-01-07T22:31:04.766Z,7.50
2023-01-07T22:33:31.960Z,6.38
2023-01-07T22:35:59.509Z,6.47
2023-01-07T22:38:27.847Z,7.32
2023-01-07T22:40:55.998Z,7.85
2023-01-07T22:43:24.439Z,6.07
2023-01-07T22:45:54.935Z,7.20
2023-01-07T22:50:55.083Z,7.30
2023-01-07T22:53:22.752Z,8.45
2023-01-07T22:55:49.996Z,6.50
2023-01-07T22:58:18.313Z,12.02
2023-01-07T23:00:48.565Z,7.35
2023-01-07T23:03:16.001Z,5.47
2023-01-07T23:05:43.439Z,6.68
2023-01-07T23:08:10.847Z,6.82
2023-01-07T23:10:38.505Z,9.18
2023-01-07T23:13:06.781Z,11.35
2023-01-07T23:15:34.715Z,7.00
2023-01-07T23:18:01.873Z,7.10
2023-01-07T23:20:29.069Z,7.20
2023-01-07T23:22:56.233Z,9.88
2023-01-07T23:25:23.408Z,7.53
2023-01-07T23:27:50.594Z,7.68
2023-01-07T23:30:17.930Z,9.35
2023-01-07T23:32:45.425Z,8.45
2023-01-07T23:35:13.488Z,7.95
2023-01-07T23:37:40.640Z,9.13
2023-01-07T23:40:08.541Z,5.57
2023-01-07T23:42:35.888Z,6.07
2023-01-07T23:45:06.912Z,5.38
2023-01-07T23:47:34.378Z,4.95
2023-01-07T23:50:01.503Z,5.07
2023-01-07T23:52:28.656Z,5.20
2023-01-07T23:54:55.835Z,4.93
2023-01-07T23:57:22.913Z,7.70
2023-01-07T23:59:50.248Z,1.98
